sensor_id;sensor_type;location;lat;lon;timestamp;P1;durP1;ratioP1;P2;durP2;ratioP2
12990;SDS011;6560;57.692;11.958;2023-06-22T00:02:17;8.65;;;5.82;;
12990;SDS011;6560;57.692;11.958;2023-06-22T00:04:43;9.35;;;6.03;;
12990;SDS011;6560;57.692;11.958;2023-06-22T00:07:10;8.80;;;5.93;;
12990;SDS011;6560;57.692;11.958;2023-06-22T00:09:37;9.85;;;5.75;;
12990;SDS011;6560;57.692;11.958;2023-06-22T00:12:03;11.55;;;6.18;;
12990;SDS011;6560;57.692;11.958;2023-06-22T00:14:29;8.40;;;5.95;;
12990;SDS011;6560;57.692;11.958;2023-06-22T00:16:55;10.98;;;5.70;;
12990;SDS011;6560;57.692;11.958;2023-06-22T00:19:22;8.90;;;5.78;;
12990;SDS011;6560;57.692;11.958;2023-06-22T00:21:48;11.63;;;5.57;;
12990;SDS011;6560;57.692;11.958;2023-06-22T00:24:18;7.28;;;4.95;;
12990;SDS011;6560;57.692;11.958;2023-06-22T00:26:49;8.55;;;5.30;;
12990;SDS011;6560;57.692;11.958;2023-06-22T00:29:15;14.50;;;6.00;;
12990;SDS011;6560;57.692;11.958;2023-06-22T00:31:41;8.75;;;5.30;;
12990;SDS011;6560;57.692;11.958;2023-06-22T00:34:08;16.13;;;6.63;;
12990;SDS011;6560;57.692;11.958;2023-06-22T00:36:37;6.07;;;4.70;;
12990;SDS011;6560;57.692;11.958;2023-06-22T00:39:02;7.10;;;4.63;;
12990;SDS011;6560;57.692;11.958;2023-06-22T00:41:28;6.13;;;4.72;;
12990;SDS011;6560;57.692;11.958;2023-06-22T00:43:54;10.15;;;4.50;;
12990;SDS011;6560;57.692;11.958;2023-06-22T00:46:20;10.15;;;4.80;;
12990;SDS011;6560;57.692;11.958;2023-06-22T00:48:49;10.57;;;5.22;;
12990;SDS011;6560;57.692;11.958;2023-06-22T00:51:17;8.65;;;5.15;;
12990;SDS011;6560;57.692;11.958;2023-06-22T00:53:49;15.23;;;4.43;;
12990;SDS011;6560;57.692;11.958;2023-06-22T00:56:16;7.75;;;4.53;;
12990;SDS011;6560;57.692;11.958;2023-06-22T00:58:45;12.90;;;5.47;;
12990;SDS011;6560;57.692;11.958;2023-06-22T01:01:12;9.90;;;4.93;;
12990;SDS011;6560;57.692;11.958;2023-06-22T01:03:40;9.55;;;4.20;;
12990;SDS011;6560;57.692;11.958;2023-06-22T01:06:10;6.05;;;4.15;;
12990;SDS011;6560;57.692;11.958;2023-06-22T01:08:49;8.00;;;4.55;;
12990;SDS011;6560;57.692;11.958;2023-06-22T01:14:10;8.02;;;5.25;;
12990;SDS011;6560;57.692;11.958;2023-06-22T01:16:42;11.13;;;4.70;;
12990;SDS011;6560;57.692;11.958;2023-06-22T01:19:20;9.15;;;4.22;;
12990;SDS011;6560;57.692;11.958;2023-06-22T01:22:01;8.48;;;4.30;;
12990;SDS011;6560;57.692;11.958;2023-06-22T01:24:33;10.50;;;4.25;;
12990;SDS011;6560;57.692;11.958;2023-06-22T01:27:39;10.23;;;5.65;;
12990;SDS011;6560;57.692;11.958;2023-06-22T01:30:16;8.88;;;4.97;;
12990;SDS011;6560;57.692;11.958;2023-06-22T01:32:43;5.53;;;4.55;;
12990;SDS011;6560;57.692;11.958;2023-06-22T01:35:10;10.93;;;5.40;;
12990;SDS011;6560;57.692;11.958;2023-06-22T01:37:37;9.38;;;4.88;;
12990;SDS011;6560;57.692;11.958;2023-06-22T01:40:07;10.00;;;4.82;;
12990;SDS011;6560;57.692;11.958;2023-06-22T01:42:35;10.65;;;4.88;;
12990;SDS011;6560;57.692;11.958;2023-06-22T01:45:02;12.43;;;5.00;;
12990;SDS011;6560;57.692;11.958;2023-06-22T01:47:28;8.93;;;4.70;;
12990;SDS011;6560;57.692;11.958;2023-06-22T01:49:55;9.20;;;4.50;;
12990;SDS011;6560;57.692;11.958;2023-06-22T01:52:21;6.43;;;4.65;;
12990;SDS011;6560;57.692;11.958;2023-06-22T01:54:47;7.13;;;4.45;;
12990;SDS011;6560;57.692;11.958;2023-06-22T01:57:13;7.82;;;4.85;;
12990;SDS011;6560;57.692;11.958;2023-06-22T02:00:00;8.52;;;4.05;;
12990;SDS011;6560;57.692;11.958;2023-06-22T02:02:33;9.43;;;3.90;;
12990;SDS011;6560;57.692;11.958;2023-06-22T02:05:06;7.25;;;4.30;;
12990;SDS011;6560;57.692;11.958;2023-06-22T02:07:37;10.27;;;4.68;;
12990;SDS011;6560;57.692;11.958;2023-06-22T02:10:09;9.73;;;4.97;;
12990;SDS011;6560;57.692;11.958;2023-06-22T02:12:37;14.73;;;5.05;;
12990;SDS011;6560;57.692;11.958;2023-06-22T02:15:04;5.95;;;3.67;;
12990;SDS011;6560;57.692;11.958;2023-06-22T02:17:30;11.50;;;4.97;;
12990;SDS011;6560;57.692;11.958;2023-06-22T02:20:00;8.20;;;4.40;;
12990;SDS011;6560;57.692;11.958;2023-06-22T02:22:30;8.25;;;4.47;;
12990;SDS011;6560;57.692;11.958;2023-06-22T02:24:55;12.45;;;5.20;;
12990;SDS011;6560;57.692;11.958;2023-06-22T02:27:21;9.43;;;4.20;;
12990;SDS011;6560;57.692;11.958;2023-06-22T02:29:46;13.02;;;4.15;;
12990;SDS011;6560;57.692;11.958;2023-06-22T02:32:13;9.15;;;4.65;;
12990;SDS011;6560;57.692;11.958;2023-06-22T02:34:38;7.80;;;4.55;;
12990;SDS011;6560;57.692;11.958;2023-06-22T02:37:04;9.35;;;4.57;;
12990;SDS011;6560;57.692;11.958;2023-06-22T02:39:30;7.32;;;4.15;;
12990;SDS011;6560;57.692;11.958;2023-06-22T02:41:57;7.53;;;4.53;;
12990;SDS011;6560;57.692;11.958;2023-06-22T02:44:24;6.93;;;3.67;;
12990;SDS011;6560;57.692;11.958;2023-06-22T02:46:49;10.65;;;4.57;;
12990;SDS011;6560;57.692;11.958;2023-06-22T02:49:15;8.90;;;4.70;;
12990;SDS011;6560;57.692;11.958;2023-06-22T02:51:42;11.15;;;4.80;;
12990;SDS011;6560;57.692;11.958;2023-06-22T02:54:13;6.88;;;4.47;;
12990;SDS011;6560;57.692;11.958;2023-06-22T02:56:42;11.40;;;5.13;;
12990;SDS011;6560;57.692;11.958;2023-06-22T02:59:10;9.38;;;4.75;;
12990;SDS011;6560;57.692;11.958;2023-06-22T03:01:36;7.38;;;4.25;;
12990;SDS011;6560;57.692;11.958;2023-06-22T03:04:08;11.68;;;5.07;;
12990;SDS011;6560;57.692;11.958;2023-06-22T03:06:34;9.98;;;4.63;;
12990;SDS011;6560;57.692;11.958;2023-06-22T03:09:02;8.60;;;4.57;;
12990;SDS011;6560;57.692;11.958;2023-06-22T03:11:33;11.00;;;4.63;;
12990;SDS011;6560;57.692;11.958;2023-06-22T03:14:02;9.27;;;5.03;;
12990;SDS011;6560;57.692;11.958;2023-06-22T03:16:28;12.32;;;4.43;;
12990;SDS011;6560;57.692;11.958;2023-06-22T03:18:54;10.55;;;4.43;;
12990;SDS011;6560;57.692;11.958;2023-06-22T03:21:22;13.80;;;4.65;;
12990;SDS011;6560;57.692;11.958;2023-06-22T03:23:49;12.85;;;4.70;;
12990;SDS011;6560;57.692;11.958;2023-06-22T03:26:18;13.52;;;5.75;;
12990;SDS011;6560;57.692;11.958;2023-06-22T03:28:43;12.23;;;5.05;;
12990;SDS011;6560;57.692;11.958;2023-06-22T03:31:09;8.73;;;5.32;;
12990;SDS011;6560;57.692;11.958;2023-06-22T03:33:36;10.05;;;4.63;;
12990;SDS011;6560;57.692;11.958;2023-06-22T03:36:01;10.80;;;5.20;;
12990;SDS011;6560;57.692;11.958;2023-06-22T03:38:27;7.47;;;4.60;;
12990;SDS011;6560;57.692;11.958;2023-06-22T03:40:53;7.05;;;4.60;;
12990;SDS011;6560;57.692;11.958;2023-06-22T03:43:18;6.85;;;4.50;;
12990;SDS011;6560;57.692;11.958;2023-06-22T03:45:44;10.07;;;5.13;;
12990;SDS011;6560;57.692;11.958;2023-06-22T03:48:14;10.68;;;5.13;;
12990;SDS011;6560;57.692;11.958;2023-06-22T03:50:39;10.02;;;4.50;;
12990;SDS011;6560;57.692;11.958;2023-06-22T03:53:05;8.85;;;5.00;;
12990;SDS011;6560;57.692;11.958;2023-06-22T03:55:30;8.50;;;4.60;;
12990;SDS011;6560;57.692;11.958;2023-06-22T03:57:56;7.78;;;4.72;;
12990;SDS011;6560;57.692;11.958;2023-06-22T04:00:25;12.32;;;5.05;;
12990;SDS011;6560;57.692;11.958;2023-06-22T04:02:52;7.80;;;4.47;;
12990;SDS011;6560;57.692;11.958;2023-06-22T04:05:17;11.57;;;4.47;;
12990;SDS011;6560;57.692;11.958;2023-06-22T04:07:44;9.10;;;4.47;;
12990;SDS011;6560;57.692;11.958;2023-06-22T04:10:10;6.43;;;4.32;;
12990;SDS011;6560;57.692;11.958;2023-06-22T04:12:36;10.43;;;5.25;;
12990;SDS011;6560;57.692;11.958;2023-06-22T04:15:01;8.93;;;4.55;;
12990;SDS011;6560;57.692;11.958;2023-06-22T04:17:27;10.82;;;5.80;;
12990;SDS011;6560;57.692;11.958;2023-06-22T04:19:53;10.65;;;5.47;;
12990;SDS011;6560;57.692;11.958;2023-06-22T04:22:18;7.72;;;4.68;;
12990;SDS011;6560;57.692;11.958;2023-06-22T04:24:44;10.35;;;4.68;;
12990;SDS011;6560;57.692;11.958;2023-06-22T04:27:10;10.25;;;5.70;;
12990;SDS011;6560;57.692;11.958;2023-06-22T04:29:37;10.00;;;4.38;;
12990;SDS011;6560;57.692;11.958;2023-06-22T04:32:03;8.05;;;4.40;;
12990;SDS011;6560;57.692;11.958;2023-06-22T04:34:30;11.43;;;4.28;;
12990;SDS011;6560;57.692;11.958;2023-06-22T04:36:57;8.52;;;4.55;;
12990;SDS011;6560;57.692;11.958;2023-06-22T04:39:23;12.40;;;5.22;;
12990;SDS011;6560;57.692;11.958;2023-06-22T04:41:49;7.43;;;4.47;;
12990;SDS011;6560;57.692;11.958;2023-06-22T04:44:18;8.55;;;4.53;;
12990;SDS011;6560;57.692;11.958;2023-06-22T04:46:51;11.07;;;5.32;;
12990;SDS011;6560;57.692;11.958;2023-06-22T04:49:19;11.85;;;4.75;;
12990;SDS011;6560;57.692;11.958;2023-06-22T04:51:46;9.63;;;5.53;;
12990;SDS011;6560;57.692;11.958;2023-06-22T04:54:12;8.48;;;4.93;;
12990;SDS011;6560;57.692;11.958;2023-06-22T04:56:39;11.20;;;4.57;;
12990;SDS011;6560;57.692;11.958;2023-06-22T04:59:07;6.93;;;4.80;;
12990;SDS011;6560;57.692;11.958;2023-06-22T05:01:33;13.45;;;4.50;;
12990;SDS011;6560;57.692;11.958;2023-06-22T05:04:00;7.57;;;4.97;;
12990;SDS011;6560;57.692;11.958;2023-06-22T05:06:26;10.77;;;5.00;;
12990;SDS011;6560;57.692;11.958;2023-06-22T05:08:56;8.27;;;4.85;;
12990;SDS011;6560;57.692;11.958;2023-06-22T05:11:24;9.23;;;4.30;;
12990;SDS011;6560;57.692;11.958;2023-06-22T05:13:52;6.95;;;4.88;;
12990;SDS011;6560;57.692;11.958;2023-06-22T05:16:20;11.55;;;5.03;;
12990;SDS011;6560;57.692;11.958;2023-06-22T05:18:52;11.07;;;5.57;;
12990;SDS011;6560;57.692;11.958;2023-06-22T05:21:23;7.43;;;5.20;;
12990;SDS011;6560;57.692;11.958;2023-06-22T05:23:51;10.27;;;5.10;;
12990;SDS011;6560;57.692;11.958;2023-06-22T05:26:18;12.73;;;5.90;;
12990;SDS011;6560;57.692;11.958;2023-06-22T05:28:45;9.63;;;5.53;;
12990;SDS011;6560;57.692;11.958;2023-06-22T05:31:14;10.57;;;4.85;;
12990;SDS011;6560;57.692;11.958;2023-06-22T05:33:40;7.38;;;5.45;;
12990;SDS011;6560;57.692;11.958;2023-06-22T05:36:08;9.95;;;4.93;;
12990;SDS011;6560;57.692;11.958;2023-06-22T05:38:35;9.80;;;5.28;;
12990;SDS011;6560;57.692;11.958;2023-06-22T05:41:01;7.68;;;4.93;;
12990;SDS011;6560;57.692;11.958;2023-06-22T05:43:28;9.93;;;6.13;;
12990;SDS011;6560;57.692;11.958;2023-06-22T05:45:54;11.65;;;5.38;;
12990;SDS011;6560;57.692;11.958;2023-06-22T05:48:19;9.38;;;5.28;;
12990;SDS011;6560;57.692;11.958;2023-06-22T05:50:45;9.63;;;5.20;;
12990;SDS011;6560;57.692;11.958;2023-06-22T05:53:11;13.05;;;5.75;;
12990;SDS011;6560;57.692;11.958;2023-06-22T05:55:36;9.48;;;4.57;;
12990;SDS011;6560;57.692;11.958;2023-06-22T05:58:02;9.48;;;4.55;;
12990;SDS011;6560;57.692;11.958;2023-06-22T06:00:30;13.23;;;5.50;;
12990;SDS011;6560;57.692;11.958;2023-06-22T06:02:56;6.68;;;4.82;;
12990;SDS011;6560;57.692;11.958;2023-06-22T06:05:21;9.45;;;4.93;;
12990;SDS011;6560;57.692;11.958;2023-06-22T06:07:49;10.68;;;5.13;;
12990;SDS011;6560;57.692;11.958;2023-06-22T06:10:14;8.80;;;4.80;;
12990;SDS011;6560;57.692;11.958;2023-06-22T06:12:40;10.25;;;5.30;;
12990;SDS011;6560;57.692;11.958;2023-06-22T06:15:07;9.35;;;4.85;;
12990;SDS011;6560;57.692;11.958;2023-06-22T06:17:33;8.52;;;4.78;;
12990;SDS011;6560;57.692;11.958;2023-06-22T06:19:59;8.93;;;4.65;;
12990;SDS011;6560;57.692;11.958;2023-06-22T06:22:24;9.23;;;4.82;;
12990;SDS011;6560;57.692;11.958;2023-06-22T06:24:50;11.20;;;5.00;;
12990;SDS011;6560;57.692;11.958;2023-06-22T06:27:15;7.95;;;4.53;;
12990;SDS011;6560;57.692;11.958;2023-06-22T06:29:43;7.68;;;4.95;;
12990;SDS011;6560;57.692;11.958;2023-06-22T06:32:10;7.32;;;4.88;;
12990;SDS011;6560;57.692;11.958;2023-06-22T06:34:37;10.25;;;5.20;;
12990;SDS011;6560;57.692;11.958;2023-06-22T06:37:03;9.85;;;4.93;;
12990;SDS011;6560;57.692;11.958;2023-06-22T06:39:28;16.05;;;6.07;;
12990;SDS011;6560;57.692;11.958;2023-06-22T06:41:58;7.72;;;4.28;;
12990;SDS011;6560;57.692;11.958;2023-06-22T06:44:23;8.93;;;4.68;;
12990;SDS011;6560;57.692;11.958;2023-06-22T06:46:49;6.32;;;4.05;;
12990;SDS011;6560;57.692;11.958;2023-06-22T06:49:15;6.43;;;4.18;;
12990;SDS011;6560;57.692;11.958;2023-06-22T06:52:00;14.20;;;5.50;;
12990;SDS011;6560;57.692;11.958;2023-06-22T06:54:26;7.72;;;4.80;;
12990;SDS011;6560;57.692;11.958;2023-06-22T06:56:52;7.05;;;4.35;;
12990;SDS011;6560;57.692;11.958;2023-06-22T06:59:18;6.75;;;4.50;;
12990;SDS011;6560;57.692;11.958;2023-06-22T07:01:43;8.43;;;4.63;;
12990;SDS011;6560;57.692;11.958;2023-06-22T07:04:10;7.47;;;4.32;;
12990;SDS011;6560;57.692;11.958;2023-06-22T07:06:36;6.80;;;3.90;;
12990;SDS011;6560;57.692;11.958;2023-06-22T07:09:02;8.65;;;4.90;;
12990;SDS011;6560;57.692;11.958;2023-06-22T07:11:28;5.03;;;4.15;;
12990;SDS011;6560;57.692;11.958;2023-06-22T07:13:54;4.72;;;4.22;;
12990;SDS011;6560;57.692;11.958;2023-06-22T07:16:20;6.28;;;4.05;;
12990;SDS011;6560;57.692;11.958;2023-06-22T07:18:46;8.32;;;3.97;;
12990;SDS011;6560;57.692;11.958;2023-06-22T07:21:11;6.53;;;4.10;;
12990;SDS011;6560;57.692;11.958;2023-06-22T07:23:38;6.88;;;4.10;;
12990;SDS011;6560;57.692;11.958;2023-06-22T07:26:05;8.40;;;3.88;;
12990;SDS011;6560;57.692;11.958;2023-06-22T07:28:33;7.07;;;3.50;;
12990;SDS011;6560;57.692;11.958;2023-06-22T07:31:02;8.85;;;4.10;;
12990;SDS011;6560;57.692;11.958;2023-06-22T07:33:28;6.53;;;3.95;;
12990;SDS011;6560;57.692;11.958;2023-06-22T07:35:56;8.93;;;4.03;;
12990;SDS011;6560;57.692;11.958;2023-06-22T07:38:21;6.65;;;4.18;;
12990;SDS011;6560;57.692;11.958;2023-06-22T07:40:47;10.23;;;3.75;;
12990;SDS011;6560;57.692;11.958;2023-06-22T07:43:13;8.23;;;4.30;;
12990;SDS011;6560;57.692;11.958;2023-06-22T07:45:39;7.78;;;4.30;;
12990;SDS011;6560;57.692;11.958;2023-06-22T07:48:06;7.28;;;4.18;;
12990;SDS011;6560;57.692;11.958;2023-06-22T07:50:32;5.88;;;4.00;;
12990;SDS011;6560;57.692;11.958;2023-06-22T07:52:58;7.28;;;4.22;;
12990;SDS011;6560;57.692;11.958;2023-06-22T07:55:24;7.47;;;3.92;;
12990;SDS011;6560;57.692;11.958;2023-06-22T07:57:50;5.38;;;3.45;;
12990;SDS011;6560;57.692;11.958;2023-06-22T08:00:17;7.05;;;4.03;;
12990;SDS011;6560;57.692;11.958;2023-06-22T08:02:44;9.57;;;4.43;;
12990;SDS011;6560;57.692;11.958;2023-06-22T08:05:11;7.25;;;4.28;;
12990;SDS011;6560;57.692;11.958;2023-06-22T08:07:37;7.85;;;4.25;;
12990;SDS011;6560;57.692;11.958;2023-06-22T08:10:04;6.07;;;3.72;;
12990;SDS011;6560;57.692;11.958;2023-06-22T08:12:32;5.20;;;3.65;;
12990;SDS011;6560;57.692;11.958;2023-06-22T08:14:57;6.00;;;3.60;;
12990;SDS011;6560;57.692;11.958;2023-06-22T08:17:23;5.93;;;3.67;;
12990;SDS011;6560;57.692;11.958;2023-06-22T08:19:49;6.63;;;3.22;;
12990;SDS011;6560;57.692;11.958;2023-06-22T08:22:16;6.70;;;3.90;;
12990;SDS011;6560;57.692;11.958;2023-06-22T08:24:42;5.57;;;3.70;;
12990;SDS011;6560;57.692;11.958;2023-06-22T08:27:09;8.00;;;3.80;;
12990;SDS011;6560;57.692;11.958;2023-06-22T08:29:37;8.65;;;3.80;;
12990;SDS011;6560;57.692;11.958;2023-06-22T08:32:02;7.57;;;3.70;;
12990;SDS011;6560;57.692;11.958;2023-06-22T08:34:28;6.82;;;3.50;;
12990;SDS011;6560;57.692;11.958;2023-06-22T08:36:54;7.65;;;3.20;;
12990;SDS011;6560;57.692;11.958;2023-06-22T08:39:19;10.05;;;3.78;;
12990;SDS011;6560;57.692;11.958;2023-06-22T08:41:45;5.18;;;3.25;;
12990;SDS011;6560;57.692;11.958;2023-06-22T08:44:12;6.32;;;3.33;;
12990;SDS011;6560;57.692;11.958;2023-06-22T08:46:37;7.22;;;3.90;;
12990;SDS011;6560;57.692;11.958;2023-06-22T08:49:05;6.65;;;3.38;;
12990;SDS011;6560;57.692;11.958;2023-06-22T08:51:31;7.13;;;3.50;;
12990;SDS011;6560;57.692;11.958;2023-06-22T08:53:56;5.78;;;3.78;;
12990;SDS011;6560;57.692;11.958;2023-06-22T08:56:22;6.03;;;3.63;;
12990;SDS011;6560;57.692;11.958;2023-06-22T08:58:47;5.32;;;2.67;;
12990;SDS011;6560;57.692;11.958;2023-06-22T09:01:13;6.68;;;3.78;;
12990;SDS011;6560;57.692;11.958;2023-06-22T09:03:40;5.22;;;3.20;;
12990;SDS011;6560;57.692;11.958;2023-06-22T09:06:07;5.80;;;3.83;;
12990;SDS011;6560;57.692;11.958;2023-06-22T09:08:34;5.57;;;3.15;;
12990;SDS011;6560;57.692;11.958;2023-06-22T09:11:01;6.85;;;3.60;;
12990;SDS011;6560;57.692;11.958;2023-06-22T09:13:28;6.25;;;3.42;;
12990;SDS011;6560;57.692;11.958;2023-06-22T09:15:55;5.75;;;3.60;;
12990;SDS011;6560;57.692;11.958;2023-06-22T09:18:21;5.70;;;3.60;;
12990;SDS011;6560;57.692;11.958;2023-06-22T09:20:46;4.18;;;3.60;;
12990;SDS011;6560;57.692;11.958;2023-06-22T09:23:12;5.30;;;3.25;;
12990;SDS011;6560;57.692;11.958;2023-06-22T09:25:38;6.45;;;3.53;;
12990;SDS011;6560;57.692;11.958;2023-06-22T09:28:05;7.10;;;3.75;;
12990;SDS011;6560;57.692;11.958;2023-06-22T09:30:32;5.38;;;3.22;;
12990;SDS011;6560;57.692;11.958;2023-06-22T09:32:58;5.80;;;3.17;;
12990;SDS011;6560;57.692;11.958;2023-06-22T09:35:24;5.03;;;3.30;;
12990;SDS011;6560;57.692;11.958;2023-06-22T09:37:49;4.00;;;3.20;;
12990;SDS011;6560;57.692;11.958;2023-06-22T09:40:15;4.60;;;3.45;;
12990;SDS011;6560;57.692;11.958;2023-06-22T09:42:41;4.13;;;3.35;;
12990;SDS011;6560;57.692;11.958;2023-06-22T09:45:08;3.67;;;3.38;;
12990;SDS011;6560;57.692;11.958;2023-06-22T09:47:34;4.10;;;3.10;;
12990;SDS011;6560;57.692;11.958;2023-06-22T09:50:00;5.07;;;3.58;;
12990;SDS011;6560;57.692;11.958;2023-06-22T09:52:28;8.93;;;3.55;;
12990;SDS011;6560;57.692;11.958;2023-06-22T09:54:55;6.00;;;3.65;;
12990;SDS011;6560;57.692;11.958;2023-06-22T09:57:20;3.80;;;3.40;;
12990;SDS011;6560;57.692;11.958;2023-06-22T09:59:46;7.80;;;4.20;;
12990;SDS011;6560;57.692;11.958;2023-06-22T10:02:11;9.20;;;4.18;;
12990;SDS011;6560;57.692;11.958;2023-06-22T10:04:38;4.18;;;3.65;;
12990;SDS011;6560;57.692;11.958;2023-06-22T10:07:04;4.93;;;3.60;;
12990;SDS011;6560;57.692;11.958;2023-06-22T10:09:30;7.20;;;4.07;;
12990;SDS011;6560;57.692;11.958;2023-06-22T10:11:59;8.65;;;4.55;;
12990;SDS011;6560;57.692;11.958;2023-06-22T10:14:26;9.98;;;4.63;;
12990;SDS011;6560;57.692;11.958;2023-06-22T10:16:52;7.10;;;4.53;;
12990;SDS011;6560;57.692;11.958;2023-06-22T10:19:18;6.10;;;4.32;;
12990;SDS011;6560;57.692;11.958;2023-06-22T10:21:44;5.53;;;3.92;;
12990;SDS011;6560;57.692;11.958;2023-06-22T10:24:09;7.13;;;3.75;;
12990;SDS011;6560;57.692;11.958;2023-06-22T10:26:35;9.20;;;4.18;;
12990;SDS011;6560;57.692;11.958;2023-06-22T10:29:04;5.80;;;4.05;;
12990;SDS011;6560;57.692;11.958;2023-06-22T10:31:29;5.75;;;4.03;;
12990;SDS011;6560;57.692;11.958;2023-06-22T10:33:56;8.75;;;4.30;;
12990;SDS011;6560;57.692;11.958;2023-06-22T10:36:23;7.32;;;4.20;;
12990;SDS011;6560;57.692;11.958;2023-06-22T10:38:49;6.88;;;4.28;;
12990;SDS011;6560;57.692;11.958;2023-06-22T10:41:14;6.00;;;4.47;;
12990;SDS011;6560;57.692;11.958;2023-06-22T10:43:43;6.60;;;4.40;;
12990;SDS011;6560;57.692;11.958;2023-06-22T10:46:08;6.97;;;5.18;;
12990;SDS011;6560;57.692;11.958;2023-06-22T10:48:34;6.35;;;4.93;;
12990;SDS011;6560;57.692;11.958;2023-06-22T10:50:59;5.80;;;4.93;;
12990;SDS011;6560;57.692;11.958;2023-06-22T10:53:26;8.93;;;4.80;;
12990;SDS011;6560;57.692;11.958;2023-06-22T10:55:51;9.55;;;4.38;;
12990;SDS011;6560;57.692;11.958;2023-06-22T10:58:18;7.72;;;4.60;;
12990;SDS011;6560;57.692;11.958;2023-06-22T11:00:44;7.13;;;4.63;;
12990;SDS011;6560;57.692;11.958;2023-06-22T11:03:10;7.95;;;4.63;;
12990;SDS011;6560;57.692;11.958;2023-06-22T11:05:38;5.68;;;5.00;;
12990;SDS011;6560;57.692;11.958;2023-06-22T11:08:03;7.45;;;4.72;;
12990;SDS011;6560;57.692;11.958;2023-06-22T11:10:29;8.82;;;5.43;;
12990;SDS011;6560;57.692;11.958;2023-06-22T11:12:56;8.43;;;4.78;;
12990;SDS011;6560;57.692;11.958;2023-06-22T11:15:23;6.53;;;4.75;;
12990;SDS011;6560;57.692;11.958;2023-06-22T11:17:49;6.95;;;5.05;;
12990;SDS011;6560;57.692;11.958;2023-06-22T11:20:14;6.78;;;4.88;;
12990;SDS011;6560;57.692;11.958;2023-06-22T11:22:41;6.65;;;4.80;;
12990;SDS011;6560;57.692;11.958;2023-06-22T11:25:07;7.30;;;5.30;;
12990;SDS011;6560;57.692;11.958;2023-06-22T11:27:35;6.85;;;5.90;;
12990;SDS011;6560;57.692;11.958;2023-06-22T11:30:00;9.15;;;5.82;;
12990;SDS011;6560;57.692;11.958;2023-06-22T11:32:26;8.00;;;5.10;;
12990;SDS011;6560;57.692;11.958;2023-06-22T11:34:51;6.15;;;4.82;;
12990;SDS011;6560;57.692;11.958;2023-06-22T11:37:17;9.95;;;5.22;;
12990;SDS011;6560;57.692;11.958;2023-06-22T11:39:43;9.88;;;5.97;;
12990;SDS011;6560;57.692;11.958;2023-06-22T11:42:09;7.53;;;4.60;;
12990;SDS011;6560;57.692;11.958;2023-06-22T11:44:35;8.50;;;5.03;;
12990;SDS011;6560;57.692;11.958;2023-06-22T11:47:00;5.05;;;4.53;;
12990;SDS011;6560;57.692;11.958;2023-06-22T11:49:28;5.40;;;4.70;;
12990;SDS011;6560;57.692;11.958;2023-06-22T11:51:54;8.55;;;4.88;;
12990;SDS011;6560;57.692;11.958;2023-06-22T11:54:19;5.88;;;4.65;;
12990;SDS011;6560;57.692;11.958;2023-06-22T11:56:45;4.80;;;3.85;;
12990;SDS011;6560;57.692;11.958;2023-06-22T11:59:10;10.35;;;4.68;;
12990;SDS011;6560;57.692;11.958;2023-06-22T12:01:36;7.32;;;4.57;;
12990;SDS011;6560;57.692;11.958;2023-06-22T12:04:02;7.53;;;4.60;;
12990;SDS011;6560;57.692;11.958;2023-06-22T12:06:30;7.53;;;4.57;;
12990;SDS011;6560;57.692;11.958;2023-06-22T12:08:57;11.85;;;5.20;;
12990;SDS011;6560;57.692;11.958;2023-06-22T12:11:23;5.47;;;4.88;;
12990;SDS011;6560;57.692;11.958;2023-06-22T12:13:50;7.18;;;4.65;;
12990;SDS011;6560;57.692;11.958;2023-06-22T12:16:17;6.32;;;4.70;;
12990;SDS011;6560;57.692;11.958;2023-06-22T12:18:42;6.68;;;4.47;;
12990;SDS011;6560;57.692;11.958;2023-06-22T12:21:08;6.25;;;4.97;;
12990;SDS011;6560;57.692;11.958;2023-06-22T12:23:34;8.20;;;4.40;;
12990;SDS011;6560;57.692;11.958;2023-06-22T12:26:00;7.15;;;4.85;;
12990;SDS011;6560;57.692;11.958;2023-06-22T12:28:26;6.72;;;5.30;;
12990;SDS011;6560;57.692;11.958;2023-06-22T12:30:52;6.97;;;5.18;;
12990;SDS011;6560;57.692;11.958;2023-06-22T12:33:18;7.55;;;5.43;;
12990;SDS011;6560;57.692;11.958;2023-06-22T12:35:45;7.25;;;5.15;;
12990;SDS011;6560;57.692;11.958;2023-06-22T12:38:11;8.27;;;5.35;;
12990;SDS011;6560;57.692;11.958;2023-06-22T12:40:36;7.32;;;6.13;;
12990;SDS011;6560;57.692;11.958;2023-06-22T12:43:03;10.35;;;6.57;;
12990;SDS011;6560;57.692;11.958;2023-06-22T12:45:30;7.22;;;6.22;;
12990;SDS011;6560;57.692;11.958;2023-06-22T12:47:58;11.13;;;5.88;;
12990;SDS011;6560;57.692;11.958;2023-06-22T12:50:24;8.93;;;5.93;;
12990;SDS011;6560;57.692;11.958;2023-06-22T12:52:51;9.55;;;6.03;;
12990;SDS011;6560;57.692;11.958;2023-06-22T12:55:17;7.95;;;5.82;;
12990;SDS011;6560;57.692;11.958;2023-06-22T12:57:43;7.05;;;5.25;;
12990;SDS011;6560;57.692;11.958;2023-06-22T13:00:09;6.82;;;5.35;;
12990;SDS011;6560;57.692;11.958;2023-06-22T13:02:35;8.32;;;5.57;;
12990;SDS011;6560;57.692;11.958;2023-06-22T13:05:01;6.13;;;5.53;;
12990;SDS011;6560;57.692;11.958;2023-06-22T13:07:28;8.77;;;5.55;;
12990;SDS011;6560;57.692;11.958;2023-06-22T13:09:55;6.38;;;5.13;;
12990;SDS011;6560;57.692;11.958;2023-06-22T13:12:20;8.20;;;5.25;;
12990;SDS011;6560;57.692;11.958;2023-06-22T13:14:46;8.10;;;5.43;;
12990;SDS011;6560;57.692;11.958;2023-06-22T13:17:12;8.98;;;4.85;;
12990;SDS011;6560;57.692;11.958;2023-06-22T13:19:39;6.93;;;4.72;;
12990;SDS011;6560;57.692;11.958;2023-06-22T13:22:05;7.45;;;4.60;;
12990;SDS011;6560;57.692;11.958;2023-06-22T13:24:50;6.10;;;4.78;;
12990;SDS011;6560;57.692;11.958;2023-06-22T13:27:15;5.90;;;4.80;;
12990;SDS011;6560;57.692;11.958;2023-06-22T13:29:42;6.25;;;4.60;;
12990;SDS011;6560;57.692;11.958;2023-06-22T13:32:08;7.63;;;5.28;;
12990;SDS011;6560;57.692;11.958;2023-06-22T13:34:34;6.25;;;5.65;;
12990;SDS011;6560;57.692;11.958;2023-06-22T13:36:59;9.15;;;6.43;;
12990;SDS011;6560;57.692;11.958;2023-06-22T13:39:25;7.70;;;6.00;;
12990;SDS011;6560;57.692;11.958;2023-06-22T13:41:51;7.82;;;5.32;;
12990;SDS011;6560;57.692;11.958;2023-06-22T13:44:16;7.10;;;5.32;;
12990;SDS011;6560;57.692;11.958;2023-06-22T13:46:42;8.80;;;6.18;;
12990;SDS011;6560;57.692;11.958;2023-06-22T13:49:08;6.75;;;6.15;;
12990;SDS011;6560;57.692;11.958;2023-06-22T13:51:34;6.68;;;5.70;;
12990;SDS011;6560;57.692;11.958;2023-06-22T13:54:01;10.43;;;6.50;;
12990;SDS011;6560;57.692;11.958;2023-06-22T13:56:27;8.75;;;5.40;;
12990;SDS011;6560;57.692;11.958;2023-06-22T13:58:54;9.88;;;5.80;;
12990;SDS011;6560;57.692;11.958;2023-06-22T14:01:19;6.55;;;5.57;;
12990;SDS011;6560;57.692;11.958;2023-06-22T14:03:45;11.07;;;5.20;;
12990;SDS011;6560;57.692;11.958;2023-06-22T14:06:12;9.38;;;5.50;;
12990;SDS011;6560;57.692;11.958;2023-06-22T14:08:38;5.97;;;4.75;;
12990;SDS011;6560;57.692;11.958;2023-06-22T14:11:04;9.48;;;4.78;;
12990;SDS011;6560;57.692;11.958;2023-06-22T14:13:30;8.15;;;5.15;;
12990;SDS011;6560;57.692;11.958;2023-06-22T14:15:55;5.38;;;4.80;;
12990;SDS011;6560;57.692;11.958;2023-06-22T14:18:22;8.68;;;4.90;;
12990;SDS011;6560;57.692;11.958;2023-06-22T14:20:48;9.15;;;5.45;;
12990;SDS011;6560;57.692;11.958;2023-06-22T14:23:15;9.02;;;6.03;;
12990;SDS011;6560;57.692;11.958;2023-06-22T14:25:42;7.65;;;4.93;;
12990;SDS011;6560;57.692;11.958;2023-06-22T14:28:07;6.90;;;5.35;;
12990;SDS011;6560;57.692;11.958;2023-06-22T14:30:33;6.45;;;4.72;;
12990;SDS011;6560;57.692;11.958;2023-06-22T14:32:58;7.28;;;5.35;;
12990;SDS011;6560;57.692;11.958;2023-06-22T14:35:24;8.50;;;4.63;;
12990;SDS011;6560;57.692;11.958;2023-06-22T14:37:50;5.38;;;4.15;;
12990;SDS011;6560;57.692;11.958;2023-06-22T14:40:15;7.10;;;4.70;;
12990;SDS011;6560;57.692;11.958;2023-06-22T14:42:42;4.43;;;4.00;;
12990;SDS011;6560;57.692;11.958;2023-06-22T14:45:09;6.90;;;4.75;;
12990;SDS011;6560;57.692;11.958;2023-06-22T14:47:35;4.47;;;4.05;;